Time;durP1;ratioP1;P1;durP2;ratioP2;P2;SDS_P1;SDS_P2;PMS_P1;PMS_P2;Temp;Humidity;BMP_temperature;BMP_pressure;BME280_temperature;BME280_humidity;BME280_pressure;Samples;Min_cycle;Max_cycle;Signal;HPM_P1;HPM_P2
2023/03/03 00:00:19;;;;;;;;;;;;;;;-1.57;75.94;96817.11;109074;1272;22803;-85
2023/03/03 00:03:10;;;;;;;;;;;;;;;-1.52;75.89;96813.98;109053;1274;79239;-85
2023/03/03 00:05:41;;;;;;;;;;;;;;;-1.54;75.59;96811.77;109076;1255;23651;-85
2023/03/03 00:08:11;;;;;;;;;;;;;;;-1.59;75.06;96811.67;109078;1275;22490;-85
2023/03/03 00:10:40;;;;;;;;;;;;;;;-1.67;75.13;96807.23;109094;1270;22496;-85
2023/03/03 00:13:15;;;;;;;;;;;;;;;-1.75;76.01;96807.15;109033;1274;23066;-85
2023/03/03 00:15:44;;;;;;;;;;;;;;;-1.76;76.82;96803.08;109071;1274;22631;-85
2023/03/03 00:18:18;;;;;;;;;;;;;;;-1.75;76.49;96799.92;109097;1274;24382;-85
2023/03/03 00:20:51;;;;;;;;;;;;;;;-1.86;76.40;96795.64;109117;1267;23231;-85
2023/03/03 00:23:26;;;;;;;;;;;;;;;-1.71;77.13;96795.38;109087;1273;22498;-85
2023/03/03 00:25:55;;;;;;;;;;;;;;;-1.70;76.43;96793.61;109091;1270;22570;-85
2023/03/03 00:28:26;;;;;;;;;;;;;;;-1.79;76.13;96795.83;109028;1274;22548;-85
2023/03/03 00:30:57;;;;;;;;;;;;;;;-1.74;76.49;96793.32;109065;1273;24275;-85
2023/03/03 00:33:33;;;;;;;;;;;;;;;-1.60;76.65;96793.59;109085;1273;22857;-85
2023/03/03 00:36:14;;;;;;;;;;;;;;;-1.53;76.51;96793.63;109079;1274;22547;-85
2023/03/03 00:38:43;;;;;;;;;;;;;;;-1.52;76.18;96790.14;109077;1270;22492;-85
2023/03/03 00:41:20;;;;;;;;;;;;;;;-1.58;75.91;96792.52;109091;1263;22542;-85
2023/03/03 00:43:50;;;;;;;;;;;;;;;-1.62;75.61;96796.20;109054;1274;22489;-85
2023/03/03 00:46:20;;;;;;;;;;;;;;;-1.65;76.13;96792.43;109102;1274;22629;-85
2023/03/03 00:48:51;;;;;;;;;;;;;;;-1.60;76.29;96788.11;109080;1267;23665;-85
2023/03/03 00:51:26;;;;;;;;;;;;;;;-1.60;76.30;96787.15;109070;1270;22565;-85
2023/03/03 00:53:56;;;;;;;;;;;;;;;-1.50;76.91;96787.42;109080;1274;22557;-85
2023/03/03 00:56:26;;;;;;;;;;;;;;;-1.40;76.82;96784.95;109072;1270;22956;-84
2023/03/03 00:58:55;;;;;;;;;;;;;;;-1.36;76.68;96784.01;109094;1267;25386;-85
2023/03/03 01:01:25;;;;;;;;;;;;;;;-1.32;76.54;96781.88;109084;1273;22477;-85
2023/03/03 01:03:54;;;;;;;;;;;;;;;-1.33;76.03;96778.25;109089;1273;22523;-85
2023/03/03 01:06:24;;;;;;;;;;;;;;;-1.42;75.73;96777.20;109073;1273;22732;-85
2023/03/03 01:08:56;;;;;;;;;;;;;;;-1.53;75.62;96775.23;109081;1274;22515;-85
2023/03/03 01:11:27;;;;;;;;;;;;;;;-1.54;75.93;96772.42;109096;1274;22535;-85
2023/03/03 01:13:56;;;;;;;;;;;;;;;-1.50;76.21;96770.75;109063;1274;22579;-85
2023/03/03 01:16:25;;;;;;;;;;;;;;;-1.51;76.02;96772.79;109076;1274;23047;-85
2023/03/03 01:18:55;;;;;;;;;;;;;;;-1.51;76.08;96770.06;109037;1273;22552;-85
2023/03/03 01:21:24;;;;;;;;;;;;;;;-1.52;76.21;96766.83;109061;1274;25407;-85
2023/03/03 01:23:53;;;;;;;;;;;;;;;-1.52;76.27;96765.30;109014;1273;64814;-85
2023/03/03 01:26:23;;;;;;;;;;;;;;;-1.54;76.12;96766.42;109118;1273;22887;-84
2023/03/03 01:28:53;;;;;;;;;;;;;;;-1.58;76.30;96760.88;109095;1274;22759;-84
2023/03/03 01:31:23;;;;;;;;;;;;;;;-1.58;76.23;96761.88;109115;1274;22493;-86
2023/03/03 01:33:52;;;;;;;;;;;;;;;-1.53;76.73;96757.42;109039;1268;24209;-85
2023/03/03 01:36:25;;;;;;;;;;;;;;;-1.44;76.79;96758.03;109089;1271;25239;-85
2023/03/03 01:38:54;;;;;;;;;;;;;;;-1.41;76.83;96757.10;109073;1270;22489;-85
2023/03/03 01:41:23;;;;;;;;;;;;;;;-1.40;76.65;96754.44;109088;1267;25258;-85
2023/03/03 01:43:53;;;;;;;;;;;;;;;-1.36;76.76;96749.56;109031;1274;23764;-85
2023/03/03 01:46:31;;;;;;;;;;;;;;;-1.27;76.90;96746.59;109117;1270;22493;-85
2023/03/03 01:49:02;;;;;;;;;;;;;;;-1.20;76.89;96745.72;109083;1269;22490;-86
2023/03/03 01:51:33;;;;;;;;;;;;;;;-1.11;76.98;96747.80;109110;1273;22474;-83
2023/03/03 01:54:04;;;;;;;;;;;;;;;-1.07;76.96;96747.88;109075;1273;25291;-85
2023/03/03 01:56:33;;;;;;;;;;;;;;;-1.02;77.08;96747.88;109147;1273;25385;-85
2023/03/03 01:59:05;;;;;;;;;;;;;;;-0.93;76.95;96746.30;109088;1274;22566;-85
2023/03/03 02:01:34;;;;;;;;;;;;;;;-0.88;77.03;96747.57;109100;1273;23799;-84
2023/03/03 02:04:04;;;;;;;;;;;;;;;-0.86;76.51;96748.73;109066;1266;22792;-85
2023/03/03 02:06:35;;;;;;;;;;;;;;;-0.92;76.35;96752.23;109135;1273;25382;-85
2023/03/03 02:09:09;;;;;;;;;;;;;;;-0.94;76.34;96752.84;109119;1273;22530;-85
2023/03/03 02:11:41;;;;;;;;;;;;;;;-0.92;76.37;96750.39;109078;1273;22496;-85
2023/03/03 02:14:12;;;;;;;;;;;;;;;-0.90;76.17;96753.34;109110;1274;22557;-86
2023/03/03 02:16:41;;;;;;;;;;;;;;;-0.93;76.05;96753.75;109054;1274;22543;-85
2023/03/03 02:19:13;;;;;;;;;;;;;;;-0.94;76.17;96757.48;109084;1274;23219;-85
2023/03/03 02:21:43;;;;;;;;;;;;;;;-0.93;76.02;96754.11;109098;1267;22509;-85
2023/03/03 02:24:15;;;;;;;;;;;;;;;-0.93;76.17;96754.23;109123;1270;24264;-85
2023/03/03 02:26:45;;;;;;;;;;;;;;;-0.89;76.43;96751.86;109155;1274;23745;-85
2023/03/03 02:29:14;;;;;;;;;;;;;;;-0.80;76.12;96755.14;109104;1274;22549;-85
2023/03/03 02:31:44;;;;;;;;;;;;;;;-0.77;75.82;96754.61;109101;1267;23188;-84
2023/03/03 02:34:13;;;;;;;;;;;;;;;-0.84;75.51;96753.77;109100;1267;24452;-84
2023/03/03 02:36:42;;;;;;;;;;;;;;;-0.88;75.34;96758.02;109093;1274;23751;-84
2023/03/03 02:39:14;;;;;;;;;;;;;;;-0.98;75.06;96757.52;109087;1274;24241;-85
2023/03/03 02:41:45;;;;;;;;;;;;;;;-1.10;75.15;96756.00;109052;1267;23772;-85
2023/03/03 02:44:15;;;;;;;;;;;;;;;-1.21;75.02;96761.04;109073;1274;22503;-84
2023/03/03 02:46:46;;;;;;;;;;;;;;;-1.30;75.17;96758.44;109090;1273;23838;-84
2023/03/03 02:49:17;;;;;;;;;;;;;;;-1.36;75.28;96759.12;109101;1270;22617;-84
2023/03/03 02:51:46;;;;;;;;;;;;;;;-1.43;75.26;96754.98;109069;1267;25313;-84
2023/03/03 02:54:16;;;;;;;;;;;;;;;-1.47;75.43;96752.95;109114;1270;23776;-84
2023/03/03 02:56:46;;;;;;;;;;;;;;;-1.52;75.35;96750.55;109050;1269;22497;-86
2023/03/03 02:59:15;;;;;;;;;;;;;;;-1.57;75.44;96751.16;109108;1274;22515;-84
2023/03/03 03:01:46;;;;;;;;;;;;;;;-1.63;75.55;96750.09;109132;1273;22482;-85
2023/03/03 03:04:16;;;;;;;;;;;;;;;-1.71;75.41;96749.78;109075;1273;22539;-84
2023/03/03 03:06:46;;;;;;;;;;;;;;;-1.83;75.31;96748.48;109015;1273;128723;-85
2023/03/03 03:09:15;;;;;;;;;;;;;;;-1.90;75.48;96748.74;109095;1267;23756;-84
2023/03/03 03:11:45;;;;;;;;;;;;;;;-1.95;75.96;96744.02;109052;1273;26980;-84
2023/03/03 03:14:17;;;;;;;;;;;;;;;-1.95;76.27;96741.43;109110;1267;24228;-84
2023/03/03 03:16:46;;;;;;;;;;;;;;;-1.94;76.21;96744.70;109095;1270;22496;-84
2023/03/03 03:19:16;;;;;;;;;;;;;;;-1.94;76.42;96740.19;109078;1271;22499;-84
2023/03/03 03:21:45;;;;;;;;;;;;;;;-1.98;75.97;96744.41;109080;1273;23961;-84
2023/03/03 03:24:14;;;;;;;;;;;;;;;-2.07;76.09;96741.75;109100;1273;22916;-84
2023/03/03 03:26:44;;;;;;;;;;;;;;;-2.08;76.32;96745.82;109115;1267;22805;-84
2023/03/03 03:29:13;;;;;;;;;;;;;;;-2.12;76.83;96740.41;109142;1273;22542;-85
2023/03/03 03:31:43;;;;;;;;;;;;;;;-2.14;76.94;96741.11;109053;1266;56837;-85
2023/03/03 03:34:12;;;;;;;;;;;;;;;-2.19;77.04;96737.83;109091;1266;23836;-85
2023/03/03 03:36:42;;;;;;;;;;;;;;;-2.25;77.20;96739.04;109098;1270;24119;-84
2023/03/03 03:39:14;;;;;;;;;;;;;;;-2.25;77.31;96738.84;109091;1269;22526;-84
2023/03/03 03:41:44;;;;;;;;;;;;;;;-2.27;76.99;96740.06;109073;1273;49633;-85
2023/03/03 03:44:13;;;;;;;;;;;;;;;-2.31;76.84;96737.50;109043;1274;22489;-85
2023/03/03 03:46:42;;;;;;;;;;;;;;;-2.31;76.79;96729.79;109059;1273;22492;-85
2023/03/03 03:49:12;;;;;;;;;;;;;;;-2.31;77.11;96732.83;109079;1273;22599;-85
2023/03/03 03:51:41;;;;;;;;;;;;;;;-2.30;77.27;96731.91;109041;1269;56887;-85
2023/03/03 03:54:11;;;;;;;;;;;;;;;-2.32;77.33;96729.52;109059;1269;22521;-85
2023/03/03 03:56:40;;;;;;;;;;;;;;;-2.32;77.29;96727.59;109093;1267;22508;-85
2023/03/03 03:59:10;;;;;;;;;;;;;;;-2.34;77.17;96725.43;109081;1267;22485;-85
2023/03/03 04:01:39;;;;;;;;;;;;;;;-2.38;77.28;96730.72;109079;1273;39728;-85
2023/03/03 04:04:08;;;;;;;;;;;;;;;-2.41;77.16;96734.06;109087;1267;24212;-85
2023/03/03 04:06:38;;;;;;;;;;;;;;;-2.44;77.54;96734.48;109107;1273;22482;-85
2023/03/03 04:09:07;;;;;;;;;;;;;;;-2.47;77.64;96728.96;109099;1273;25210;-85
2023/03/03 04:11:36;;;;;;;;;;;;;;;-2.50;77.50;96730.28;109076;1267;23823;-84
2023/03/03 04:14:06;;;;;;;;;;;;;;;-2.51;77.48;96730.23;109125;1266;22495;-85
2023/03/03 04:16:38;;;;;;;;;;;;;;;-2.52;77.41;96732.84;109094;1273;22500;-85
2023/03/03 04:19:07;;;;;;;;;;;;;;;-2.53;77.26;96729.41;109067;1273;23046;-85
2023/03/03 04:21:36;;;;;;;;;;;;;;;-2.59;77.49;96730.95;108996;1266;105663;-85
2023/03/03 04:24:06;;;;;;;;;;;;;;;-2.65;77.48;96732.24;109105;1267;22496;-85
2023/03/03 04:26:37;;;;;;;;;;;;;;;-2.69;77.87;96738.64;109077;1270;22631;-85
2023/03/03 04:29:06;;;;;;;;;;;;;;;-2.67;78.29;96738.29;109102;1273;22716;-85
2023/03/03 04:31:35;;;;;;;;;;;;;;;-2.65;78.23;96737.88;109085;1273;22798;-84
2023/03/03 04:34:05;;;;;;;;;;;;;;;-2.63;78.49;96738.67;109052;1273;22621;-86
2023/03/03 04:36:34;;;;;;;;;;;;;;;-2.64;78.37;96738.19;109082;1266;23019;-85
2023/03/03 04:39:03;;;;;;;;;;;;;;;-2.63;78.48;96735.33;109108;1273;23791;-85
2023/03/03 04:41:33;;;;;;;;;;;;;;;-2.62;78.58;96733.85;109060;1267;22515;-84
2023/03/03 04:44:02;;;;;;;;;;;;;;;-2.64;78.56;96739.27;109091;1273;23224;-85
2023/03/03 04:46:32;;;;;;;;;;;;;;;-2.63;78.46;96735.04;109089;1273;23735;-86
2023/03/03 04:49:02;;;;;;;;;;;;;;;-2.66;78.41;96735.51;109076;1273;23481;-86
2023/03/03 04:51:32;;;;;;;;;;;;;;;-2.65;78.98;96733.13;109087;1273;22495;-85
2023/03/03 04:54:01;;;;;;;;;;;;;;;-2.64;79.07;96731.30;109058;1262;22792;-85
2023/03/03 04:56:31;;;;;;;;;;;;;;;-2.68;78.89;96735.80;109110;1267;22557;-85
2023/03/03 04:59:01;;;;;;;;;;;;;;;-2.73;78.79;96738.85;109105;1262;22489;-86
2023/03/03 05:01:30;;;;;;;;;;;;;;;-2.78;78.77;96735.00;109058;1267;22492;-85
2023/03/03 05:03:59;;;;;;;;;;;;;;;-2.80;78.91;96740.23;109101;1273;22606;-85
2023/03/03 05:06:29;;;;;;;;;;;;;;;-2.82;78.92;96743.97;109098;1271;24025;-85
2023/03/03 05:08:58;;;;;;;;;;;;;;;-2.85;78.78;96739.85;109086;1273;23359;-85
2023/03/03 05:11:28;;;;;;;;;;;;;;;-2.85;78.80;96744.80;109113;1273;23890;-85
2023/03/03 05:13:57;;;;;;;;;;;;;;;-2.85;79.12;96743.37;109097;1273;25147;-86
2023/03/03 05:16:26;;;;;;;;;;;;;;;-2.84;79.17;96742.05;109074;1270;22530;-85
2023/03/03 05:18:56;;;;;;;;;;;;;;;-2.85;79.44;96744.96;109087;1269;23285;-85
2023/03/03 05:21:25;;;;;;;;;;;;;;;-2.87;79.52;96746.44;109127;1273;24202;-85
2023/03/03 05:23:54;;;;;;;;;;;;;;;-2.90;79.65;96752.02;109070;1267;22528;-85
2023/03/03 05:26:24;;;;;;;;;;;;;;;-2.90;79.97;96754.84;109127;1273;22491;-85
2023/03/03 05:28:53;;;;;;;;;;;;;;;-2.87;80.27;96755.33;109104;1266;23718;-85
2023/03/03 05:31:22;;;;;;;;;;;;;;;-2.84;80.60;96753.52;109088;1262;23998;-86
2023/03/03 05:33:52;;;;;;;;;;;;;;;-2.85;80.17;96752.03;109065;1266;24633;-85
2023/03/03 05:36:21;;;;;;;;;;;;;;;-2.87;80.32;96752.30;109074;1273;23768;-85
2023/03/03 05:38:51;;;;;;;;;;;;;;;-2.78;80.69;96755.67;109091;1273;22514;-83
2023/03/03 05:41:20;;;;;;;;;;;;;;;-2.62;81.10;96754.56;109062;1267;22496;-84
2023/03/03 05:43:50;;;;;;;;;;;;;;;-2.44;81.09;96753.17;109053;1274;22525;-84
2023/03/03 05:46:19;;;;;;;;;;;;;;;-2.27;80.86;96758.86;109072;1270;22495;-84
2023/03/03 05:48:48;;;;;;;;;;;;;;;-2.09;80.63;96760.11;109115;1273;25694;-84
2023/03/03 05:51:18;;;;;;;;;;;;;;;-1.90;80.30;96759.86;109079;1273;22517;-84
2023/03/03 05:53:48;;;;;;;;;;;;;;;-1.88;79.99;96757.54;109069;1273;22649;-84
2023/03/03 05:56:17;;;;;;;;;;;;;;;-1.92;79.73;96754.54;109074;1273;22514;-83
2023/03/03 05:58:46;;;;;;;;;;;;;;;-1.99;79.74;96756.30;109112;1273;22500;-84
2023/03/03 06:01:16;;;;;;;;;;;;;;;-1.94;80.07;96756.18;109094;1273;22506;-84
2023/03/03 06:03:45;;;;;;;;;;;;;;;-1.75;80.34;96753.21;109095;1268;27479;-84
2023/03/03 06:06:15;;;;;;;;;;;;;;;-1.55;80.07;96753.21;109118;1273;22525;-84
2023/03/03 06:08:45;;;;;;;;;;;;;;;-1.38;79.92;96758.52;109112;1269;22499;-83
2023/03/03 06:11:15;;;;;;;;;;;;;;;-1.26;79.58;96760.13;109125;1269;24209;-83
2023/03/03 06:13:45;;;;;;;;;;;;;;;-1.04;79.83;96762.71;109070;1273;57610;-83
2023/03/03 06:16:14;;;;;;;;;;;;;;;-0.66;79.44;96769.68;109125;1273;22595;-83
2023/03/03 06:18:44;;;;;;;;;;;;;;;-0.05;79.53;96775.88;109044;1273;24208;-86
2023/03/03 06:21:14;;;;;;;;;;;;;;;0.71;79.22;96775.39;109105;1269;24202;-83
2023/03/03 06:23:44;;;;;;;;;;;;;;;1.40;78.30;96777.23;109080;1273;22489;-83
2023/03/03 06:26:14;;;;;;;;;;;;;;;1.89;77.19;96779.17;109054;1273;24306;-83
2023/03/03 06:28:43;;;;;;;;;;;;;;;1.89;75.50;96786.77;109097;1273;22520;-84
2023/03/03 06:31:12;;;;;;;;;;;;;;;1.60;74.61;96793.46;109117;1273;22451;-83
2023/03/03 06:33:42;;;;;;;;;;;;;;;1.45;74.86;96799.05;109103;1268;22489;-83
2023/03/03 06:36:11;;;;;;;;;;;;;;;1.35;74.72;96801.70;109118;1273;22520;-83
2023/03/03 06:38:41;;;;;;;;;;;;;;;1.19;74.36;96804.50;109097;1273;22894;-82
2023/03/03 06:41:11;;;;;;;;;;;;;;;0.92;74.31;96815.95;109109;1273;22618;-83
2023/03/03 06:43:41;;;;;;;;;;;;;;;0.82;74.47;96820.47;109048;1274;22491;-85
2023/03/03 06:46:10;;;;;;;;;;;;;;;0.56;74.26;96826.92;109076;1269;22467;-82
2023/03/03 06:48:40;;;;;;;;;;;;;;;0.16;74.14;96831.98;109114;1270;22496;-85
2023/03/03 06:51:17;;;;;;;;;;;;;;;-0.15;74.35;96836.61;109094;1273;22580;-85
2023/03/03 06:53:47;;;;;;;;;;;;;;;-0.40;74.95;96835.46;109059;1261;22516;-84
2023/03/03 06:56:18;;;;;;;;;;;;;;;-0.49;75.20;96842.89;109063;1273;25013;-85
2023/03/03 06:58:49;;;;;;;;;;;;;;;-0.55;75.05;96842.65;109076;1273;22991;-84
2023/03/03 07:01:18;;;;;;;;;;;;;;;-0.55;75.31;96843.30;109110;1273;22531;-84
2023/03/03 07:03:47;;;;;;;;;;;;;;;-0.56;75.36;96844.34;109062;1269;25013;-84
2023/03/03 07:06:21;;;;;;;;;;;;;;;-0.55;75.50;96845.79;109052;1270;22527;-84
2023/03/03 07:08:50;;;;;;;;;;;;;;;-0.73;75.38;96849.80;109125;1268;22630;-84
2023/03/03 07:11:21;;;;;;;;;;;;;;;-0.96;75.60;96849.58;109128;1273;26126;-84
2023/03/03 07:13:51;;;;;;;;;;;;;;;-0.98;76.21;96846.14;109077;1268;22496;-84
2023/03/03 07:16:24;;;;;;;;;;;;;;;-0.88;76.64;96850.74;109128;1269;22490;-84
2023/03/03 07:18:54;;;;;;;;;;;;;;;-0.93;76.61;96846.75;109103;1273;22615;-84
2023/03/03 07:21:26;;;;;;;;;;;;;;;-0.98;77.39;96842.36;109061;1273;22475;-84
2023/03/03 07:23:56;;;;;;;;;;;;;;;-0.95;77.46;96841.98;109099;1269;22491;-84
2023/03/03 07:26:29;;;;;;;;;;;;;;;-0.87;77.75;96842.02;109089;1273;22625;-84
2023/03/03 07:29:00;;;;;;;;;;;;;;;-0.72;78.09;96842.15;109088;1266;22628;-84
2023/03/03 07:31:34;;;;;;;;;;;;;;;-0.53;78.03;96840.52;109091;1273;22496;-84
2023/03/03 07:34:05;;;;;;;;;;;;;;;-0.38;77.92;96836.94;109129;1266;23839;-84
2023/03/03 07:36:36;;;;;;;;;;;;;;;-0.27;78.04;96828.14;109080;1273;24194;-83
2023/03/03 07:39:18;;;;;;;;;;;;;;;-0.13;78.20;96815.68;109074;1268;22490;-83
2023/03/03 07:41:48;;;;;;;;;;;;;;;0.78;79.35;96815.20;109117;1273;22494;-83
2023/03/03 07:44:19;;;;;;;;;;;;;;;2.18;78.73;96809.80;109048;1270;22454;-83
2023/03/03 07:46:49;;;;;;;;;;;;;;;2.46;76.82;96813.52;109105;1267;22488;-83
2023/03/03 07:49:23;;;;;;;;;;;;;;;2.54;75.74;96807.85;109134;1273;25314;-83
2023/03/03 07:51:56;;;;;;;;;;;;;;;2.52;74.21;96807.67;109071;1273;25289;-82
2023/03/03 07:54:30;;;;;;;;;;;;;;;2.90;74.57;96801.89;109080;1273;22505;-83
2023/03/03 07:57:02;;;;;;;;;;;;;;;3.81;73.80;96799.69;109117;1270;22843;-83
2023/03/03 07:59:35;;;;;;;;;;;;;;;4.92;73.06;96789.20;109074;1273;22974;-83
2023/03/03 08:02:16;;;;;;;;;;;;;;;6.39;72.07;96777.36;109068;1273;48197;-83
2023/03/03 08:04:54;;;;;;;;;;;;;;;7.77;68.56;96765.80;109103;1269;23998;-83
2023/03/03 08:07:27;;;;;;;;;;;;;;;8.67;64.87;96761.45;109038;1274;22491;-83
2023/03/03 08:09:59;;;;;;;;;;;;;;;9.28;63.42;96767.20;109117;1273;22485;-83
2023/03/03 08:12:41;;;;;;;;;;;;;;;9.98;61.25;96760.61;109057;1269;43507;-83
2023/03/03 08:15:27;;;;;;;;;;;;;;;10.38;58.88;96744.10;109099;1273;22484;-84
2023/03/03 08:17:56;;;;;;;;;;;;;;;10.28;56.44;96739.70;109135;1269;25499;-84
2023/03/03 08:20:43;;;;;;;;;;;;;;;10.09;55.20;96742.05;109107;1273;22611;-84
2023/03/03 08:23:14;;;;;;;;;;;;;;;9.79;54.11;96725.14;109045;1273;50404;-85
2023/03/03 08:25:44;;;;;;;;;;;;;;;9.78;53.79;96726.31;109105;1267;25280;-84
2023/03/03 08:28:14;;;;;;;;;;;;;;;10.06;53.80;96729.39;109045;1269;22505;-84
2023/03/03 08:30:45;;;;;;;;;;;;;;;10.30;52.96;96749.18;109076;1272;23093;-83
2023/03/03 08:33:14;;;;;;;;;;;;;;;10.36;52.65;96756.15;109012;1273;85095;-84
2023/03/03 08:35:47;;;;;;;;;;;;;;;10.50;51.27;96752.78;109071;1273;22499;-84
2023/03/03 08:38:17;;;;;;;;;;;;;;;10.56;51.45;96747.55;109074;1266;22530;-83
2023/03/03 08:40:47;;;;;;;;;;;;;;;11.00;51.93;96751.34;109073;1273;24283;-84
2023/03/03 08:43:20;;;;;;;;;;;;;;;11.32;51.47;96756.24;109056;1267;28406;-83
2023/03/03 08:45:50;;;;;;;;;;;;;;;11.48;51.76;96756.10;109116;1273;23801;-83
2023/03/03 08:48:20;;;;;;;;;;;;;;;11.86;52.00;96750.20;109086;1273;25431;-82
2023/03/03 08:50:50;;;;;;;;;;;;;;;11.54;49.53;96740.38;109099;1273;23347;-83
2023/03/03 08:53:19;;;;;;;;;;;;;;;10.99;50.17;96737.83;109026;1266;36657;-83
2023/03/03 08:55:49;;;;;;;;;;;;;;;11.16;51.35;96738.38;109107;1273;24270;-82
2023/03/03 08:58:20;;;;;;;;;;;;;;;11.41;50.20;96748.08;109096;1273;22485;-83
2023/03/03 09:00:49;;;;;;;;;;;;;;;9.59;48.26;96757.73;109088;1273;25913;-83
2023/03/03 09:03:19;;;;;;;;;;;;;;;7.59;50.60;96762.77;108999;1269;101068;-82
2023/03/03 09:05:48;;;;;;;;;;;;;;;6.16;53.13;96775.59;109100;1270;22481;-82
2023/03/03 09:08:18;;;;;;;;;;;;;;;5.47;55.13;96775.89;109073;1272;22479;-82
2023/03/03 09:10:47;;;;;;;;;;;;;;;5.02;56.67;96783.46;109080;1273;22546;-82
2023/03/03 09:13:19;;;;;;;;;;;;;;;4.77;58.19;96791.98;109045;1271;52962;-82
2023/03/03 09:15:49;;;;;;;;;;;;;;;4.60;59.11;96793.05;109113;1268;25459;-82
2023/03/03 09:18:21;;;;;;;;;;;;;;;4.55;59.79;96792.84;109106;1274;22606;-82
2023/03/03 09:20:51;;;;;;;;;;;;;;;4.45;59.94;96778.27;109046;1267;22496;-82
2023/03/03 09:23:28;;;;;;;;;;;;;;;4.28;60.15;96773.49;109012;1273;70642;-82
2023/03/03 09:25:59;;;;;;;;;;;;;;;4.10;60.76;96769.22;109055;1267;22488;-82
2023/03/03 09:28:29;;;;;;;;;;;;;;;3.87;61.57;96779.94;109137;1273;22485;-82
2023/03/03 09:31:00;;;;;;;;;;;;;;;3.73;62.00;96792.58;109086;1268;22555;-82
2023/03/03 09:33:32;;;;;;;;;;;;;;;3.48;62.79;96795.67;109055;1267;51311;-82
2023/03/03 09:36:12;;;;;;;;;;;;;;;3.29;63.51;96797.50;109104;1274;22519;-82
2023/03/03 09:38:44;;;;;;;;;;;;;;;3.15;63.90;96798.46;109088;1269;25866;-81
2023/03/03 09:41:36;;;;;;;;;;;;;;;2.98;64.50;96799.52;109038;1273;24219;-82
2023/03/03 09:44:16;;;;;;;;;;;;;;;2.90;65.09;96800.52;109091;1273;22592;-82
2023/03/03 09:46:54;;;;;;;;;;;;;;;2.95;65.56;96800.98;109086;1273;22501;-82
2023/03/03 09:49:28;;;;;;;;;;;;;;;2.99;65.88;96799.61;109074;1268;22545;-82
2023/03/03 09:52:05;;;;;;;;;;;;;;;3.10;66.18;96801.81;109055;1269;62982;-82
2023/03/03 09:54:42;;;;;;;;;;;;;;;3.21;66.19;96805.41;109065;1269;22645;-82
2023/03/03 09:57:14;;;;;;;;;;;;;;;3.29;65.90;96800.68;109085;1274;22486;-83
2023/03/03 09:59:51;;;;;;;;;;;;;;;3.32;65.96;96793.35;109073;1262;22552;-82
2023/03/03 10:02:31;;;;;;;;;;;;;;;3.31;65.94;96781.59;109050;1273;50443;-83
2023/03/03 10:05:10;;;;;;;;;;;;;;;3.37;65.90;96771.61;109112;1273;22505;-82
2023/03/03 10:07:45;;;;;;;;;;;;;;;3.90;66.44;96774.48;109105;1273;24189;-82
2023/03/03 10:10:20;;;;;;;;;;;;;;;4.35;65.61;96783.51;109082;1269;22500;-82
2023/03/03 10:12:55;;;;;;;;;;;;;;;4.28;64.65;96788.86;109059;1269;34388;-82
2023/03/03 10:15:36;;;;;;;;;;;;;;;4.13;64.83;96789.90;109019;1273;23845;-82
2023/03/03 10:18:11;;;;;;;;;;;;;;;4.29;65.12;96788.67;109080;1273;22498;-82
2023/03/03 10:20:52;;;;;;;;;;;;;;;4.57;65.26;96789.05;109070;1270;22794;-81
2023/03/03 10:23:33;;;;;;;;;;;;;;;4.71;64.25;96780.73;109029;1270;61864;-81
2023/03/03 10:26:08;;;;;;;;;;;;;;;4.48;63.84;96778.55;109092;1273;24242;-81
2023/03/03 10:28:53;;;;;;;;;;;;;;;4.50;64.22;96778.58;109110;1271;22649;-81
2023/03/03 10:31:32;;;;;;;;;;;;;;;4.68;64.02;96775.55;109089;1273;22509;-81
2023/03/03 10:34:07;;;;;;;;;;;;;;;4.68;63.89;96776.96;109062;1271;33005;-81
2023/03/03 10:36:46;;;;;;;;;;;;;;;4.61;64.30;96780.55;109094;1266;23849;-82
2023/03/03 10:39:22;;;;;;;;;;;;;;;4.60;64.32;96780.70;109096;1273;23776;-81
2023/03/03 10:41:59;;;;;;;;;;;;;;;4.82;63.86;96779.34;108996;1273;44139;-81
2023/03/03 10:44:38;;;;;;;;;;;;;;;4.72;63.77;96783.74;109112;1275;25473;-82
2023/03/03 10:47:18;;;;;;;;;;;;;;;4.84;64.06;96777.48;109070;1273;22519;-81
2023/03/03 10:49:55;;;;;;;;;;;;;;;4.99;63.88;96782.84;109099;1269;22447;-82
2023/03/03 10:52:32;;;;;;;;;;;;;;;4.93;63.43;96786.10;109064;1268;36649;-81
2023/03/03 10:55:18;;;;;;;;;;;;;;;4.83;63.44;96787.94;109071;1268;22512;-81
2023/03/03 10:57:53;;;;;;;;;;;;;;;5.15;64.58;96782.14;109033;1273;22770;-81
2023/03/03 11:00:24;;;;;;;;;;;;;;;5.42;63.08;96785.86;109088;1273;23610;-81
2023/03/03 11:03:08;;;;;;;;;;;;;;;5.73;64.01;96785.25;109025;1270;42395;-82
2023/03/03 11:05:40;;;;;;;;;;;;;;;5.95;63.43;96790.83;109122;1266;25402;-82
2023/03/03 11:08:12;;;;;;;;;;;;;;;6.14;63.19;96795.70;109080;1274;22544;-81
2023/03/03 11:10:48;;;;;;;;;;;;;;;6.28;62.66;96791.65;109129;1273;22518;-81
2023/03/03 11:13:23;;;;;;;;;;;;;;;6.21;61.84;96783.25;109047;1273;39400;-82
2023/03/03 11:16:00;;;;;;;;;;;;;;;6.03;61.98;96789.30;109143;1272;23285;-81
2023/03/03 11:18:35;;;;;;;;;;;;;;;6.18;62.55;96787.23;109158;1269;22491;-81
2023/03/03 11:21:09;;;;;;;;;;;;;;;6.17;60.98;96782.95;109105;1273;23822;-81
2023/03/03 11:23:52;;;;;;;;;;;;;;;5.81;61.14;96780.42;109036;1272;48308;-81
2023/03/03 11:26:27;;;;;;;;;;;;;;;5.82;61.47;96785.23;109059;1273;26043;-81
2023/03/03 11:29:05;;;;;;;;;;;;;;;6.03;62.01;96782.98;109071;1272;22676;-80
2023/03/03 11:31:38;;;;;;;;;;;;;;;6.04;60.60;96782.15;109051;1274;24213;-81
2023/03/03 11:34:14;;;;;;;;;;;;;;;6.03;61.33;96790.04;109096;1266;22491;-81
2023/03/03 11:36:45;;;;;;;;;;;;;;;6.22;61.35;96778.32;109091;1274;23891;-81
2023/03/03 11:39:17;;;;;;;;;;;;;;;6.24;60.95;96777.02;109104;1274;22496;-81
2023/03/03 11:41:59;;;;;;;;;;;;;;;6.26;61.16;96770.63;109044;1274;34807;-81
2023/03/03 11:44:31;;;;;;;;;;;;;;;6.39;60.90;96775.41;109104;1273;23527;-80
2023/03/03 11:47:04;;;;;;;;;;;;;;;6.46;60.79;96778.37;109097;1274;22552;-81
2023/03/03 11:49:38;;;;;;;;;;;;;;;6.64;61.17;96780.02;109061;1273;22528;-81
2023/03/03 11:52:13;;;;;;;;;;;;;;;6.70;60.23;96774.61;109038;1271;86404;-81
2023/03/03 11:54:47;;;;;;;;;;;;;;;6.31;59.53;96777.63;109136;1272;24170;-81
2023/03/03 11:57:20;;;;;;;;;;;;;;;6.01;60.00;96779.55;109121;1274;22454;-81
2023/03/03 11:59:55;;;;;;;;;;;;;;;5.74;60.05;96785.84;109131;1274;22532;-81
2023/03/03 12:02:33;;;;;;;;;;;;;;;5.55;60.60;96783.84;108990;1275;82409;-81
2023/03/03 12:05:06;;;;;;;;;;;;;;;5.32;60.96;96784.24;109094;1270;23721;-81
2023/03/03 12:07:42;;;;;;;;;;;;;;;5.28;61.28;96782.35;109131;1273;22508;-81
2023/03/03 12:10:17;;;;;;;;;;;;;;;5.20;61.13;96776.44;109096;1273;22540;-81
2023/03/03 12:12:50;;;;;;;;;;;;;;;5.14;61.52;96772.77;109081;1273;61357;-81
2023/03/03 12:15:27;;;;;;;;;;;;;;;5.22;61.70;96771.71;109084;1273;22533;-82
2023/03/03 12:18:08;;;;;;;;;;;;;;;5.32;62.18;96776.11;109106;1273;22806;-82
2023/03/03 12:20:44;;;;;;;;;;;;;;;5.48;62.18;96778.95;109092;1274;22530;-82
2023/03/03 12:23:21;;;;;;;;;;;;;;;5.45;61.75;96780.39;109105;1273;92080;-82
2023/03/03 12:25:57;;;;;;;;;;;;;;;5.22;61.99;96791.02;109081;1268;22498;-82
2023/03/03 12:28:30;;;;;;;;;;;;;;;5.03;61.21;96788.67;109079;1267;23891;-82
2023/03/03 12:31:09;;;;;;;;;;;;;;;4.72;61.21;96779.76;109043;1272;22544;-83
2023/03/03 12:33:58;;;;;;;;;;;;;;;4.61;61.43;96776.30;109101;1274;32994;-82
2023/03/03 12:36:35;;;;;;;;;;;;;;;4.54;62.17;96774.50;109073;1274;22499;-82
2023/03/03 12:39:06;;;;;;;;;;;;;;;4.66;62.42;96765.53;109068;1270;22529;-82
2023/03/03 12:41:38;;;;;;;;;;;;;;;4.64;61.77;96759.40;109068;1266;22545;-81
2023/03/03 12:44:14;;;;;;;;;;;;;;;4.52;61.60;96762.82;109062;1267;22716;-82
2023/03/03 12:46:52;;;;;;;;;;;;;;;4.53;61.97;96768.61;109094;1268;25252;-82
2023/03/03 12:49:23;;;;;;;;;;;;;;;4.54;62.15;96764.80;109108;1273;23967;-82
2023/03/03 12:52:04;;;;;;;;;;;;;;;4.57;62.71;96770.78;109039;1272;45162;-82
2023/03/03 12:54:45;;;;;;;;;;;;;;;4.81;63.05;96774.49;109105;1273;22616;-82
2023/03/03 12:57:18;;;;;;;;;;;;;;;4.74;62.64;96777.64;109063;1274;22842;-82
2023/03/03 12:59:54;;;;;;;;;;;;;;;4.74;63.04;96778.84;109063;1268;25923;-82
2023/03/03 13:02:34;;;;;;;;;;;;;;;4.88;63.01;96773.81;109056;1271;41868;-82
2023/03/03 13:05:09;;;;;;;;;;;;;;;4.91;62.44;96771.45;109109;1274;22515;-82